Time;durP1;ratioP1;P1;durP2;ratioP2;P2;SDS_P1;SDS_P2;PMS_P1;PMS_P2;Temp;Humidity;BMP_temperature;BMP_pressure;BME280_temperature;BME280_humidity;BME280_pressure;Samples;Min_cycle;Max_cycle;Signal;HPM_P1;HPM_P2
2022/10/19 00:00:21;;;;;;;0.10;0.10;;;13.90;99.90;;;;;;5062137;28;20211;-80
2022/10/19 00:02:46;;;;;;;0.10;0.10;;;14.00;99.90;;;;;;5060394;28;20181;-80
2022/10/19 00:05:12;;;;;;;0.10;0.10;;;14.10;99.90;;;;;;5064082;28;20187;-80
2022/10/19 00:07:38;;;;;;;0.10;0.10;;;14.20;99.90;;;;;;5074654;28;20319;-80
2022/10/19 00:10:04;;;;;;;0.10;0.10;;;14.20;99.90;;;;;;5064692;28;21171;-80
2022/10/19 00:12:30;;;;;;;0.10;0.10;;;14.20;99.90;;;;;;5062241;28;20688;-80
2022/10/19 00:14:55;;;;;;;0.10;0.10;;;14.20;99.90;;;;;;5062792;28;20219;-80
2022/10/19 00:17:21;;;;;;;0.10;0.10;;;14.10;99.90;;;;;;5059292;28;20225;-80
2022/10/19 00:19:47;;;;;;;0.10;0.10;;;14.10;99.90;;;;;;5062224;28;20207;-80
2022/10/19 00:22:12;;;;;;;0.10;0.10;;;14.10;99.90;;;;;;5070990;28;20656;-79
2022/10/19 00:24:38;;;;;;;0.10;0.10;;;14.20;99.90;;;;;;5059649;28;20217;-79
2022/10/19 00:27:05;;;;;;;0.10;0.10;;;14.20;99.90;;;;;;5060243;28;20673;-79
2022/10/19 00:29:31;;;;;;;0.10;0.10;;;14.10;99.90;;;;;;5061924;28;20198;-81
2022/10/19 00:31:56;;;;;;;0.10;0.10;;;14.00;99.90;;;;;;5060702;28;20201;-80
2022/10/19 00:34:22;;;;;;;0.10;0.10;;;13.90;99.90;;;;;;5060487;28;20210;-79
2022/10/19 00:36:47;;;;;;;0.10;0.10;;;13.80;99.90;;;;;;5061862;28;20206;-80
2022/10/19 00:39:14;;;;;;;0.10;0.10;;;13.90;99.90;;;;;;5065039;28;20195;-80
2022/10/19 00:41:41;;;;;;;0.10;0.10;;;13.80;99.90;;;;;;5064001;28;20235;-80
2022/10/19 00:44:14;;;;;;;0.10;0.10;;;13.80;99.90;;;;;;5076760;28;20186;-79
2022/10/19 00:46:42;;;;;;;0.10;0.10;;;13.80;99.90;;;;;;5083770;28;20292;-79
2022/10/19 00:49:11;;;;;;;0.10;0.10;;;13.80;99.90;;;;;;5067745;28;20186;-80
2022/10/19 00:51:39;;;;;;;0.10;0.10;;;13.70;99.90;;;;;;5069465;28;20226;-79
2022/10/19 00:54:06;;;;;;;0.10;0.10;;;13.80;99.90;;;;;;5076617;28;20297;-79
2022/10/19 00:56:32;;;;;;;0.10;0.10;;;13.70;99.90;;;;;;5083944;28;20209;-80
2022/10/19 00:58:58;;;;;;;0.10;0.10;;;13.80;99.90;;;;;;5081709;28;20179;-80
2022/10/19 01:01:27;;;;;;;0.00;0.00;;;13.70;99.90;;;;;;5066107;28;20282;-80
2022/10/19 01:03:52;;;;;;;0.10;0.10;;;13.70;99.90;;;;;;5067473;28;20183;-79
2022/10/19 01:06:18;;;;;;;0.10;0.10;;;13.70;99.90;;;;;;5065105;28;20267;-80
2022/10/19 01:08:45;;;;;;;0.00;0.00;;;13.60;99.90;;;;;;5065818;28;20242;-80
2022/10/19 01:11:32;;;;;;;0.10;0.10;;;13.50;99.90;;;;;;5066631;28;20714;-80
2022/10/19 01:14:15;;;;;;;0.10;0.10;;;13.40;99.90;;;;;;5073552;28;20273;-80
2022/10/19 01:16:46;;;;;;;0.10;0.10;;;13.40;99.90;;;;;;5075259;28;20209;-80
2022/10/19 01:19:51;;;;;;;0.07;0.07;;;13.50;99.90;;;;;;5067868;28;20178;-80
2022/10/19 01:22:26;;;;;;;0.00;0.00;;;13.50;99.90;;;;;;5076465;28;20269;-80
2022/10/19 01:25:17;;;;;;;0.10;0.10;;;13.50;99.90;;;;;;5074533;28;20182;-80
2022/10/19 01:28:02;;;;;;;0.00;0.00;;;13.50;99.90;;;;;;5067426;28;20541;-80
2022/10/19 01:31:00;;;;;;;0.10;0.10;;;13.50;99.90;;;;;;5065777;28;20697;-80
2022/10/19 01:33:41;;;;;;;0.00;0.00;;;13.40;99.90;;;;;;5065702;28;20193;-80
2022/10/19 01:36:22;;;;;;;0.10;0.10;;;13.20;99.90;;;;;;5076575;28;20201;-80
2022/10/19 01:39:07;;;;;;;0.10;0.10;;;13.10;99.90;;;;;;5076915;28;20578;-80
2022/10/19 01:42:01;;;;;;;0.10;0.10;;;13.00;99.90;;;;;;5064990;28;20624;-79
2022/10/19 01:44:36;;;;;;;0.10;0.10;;;13.00;99.90;;;;;;5067877;28;20197;-80
2022/10/19 01:47:10;;;;;;;0.10;0.10;;;13.10;99.90;;;;;;5065476;28;20184;-80
2022/10/19 01:49:59;;;;;;;0.10;0.10;;;13.00;99.90;;;;;;5064330;28;20712;-80
2022/10/19 01:52:26;;;;;;;0.00;0.00;;;13.00;99.90;;;;;;5077403;28;20189;-80
2022/10/19 01:54:56;;;;;;;0.00;0.00;;;12.90;99.90;;;;;;5062254;28;20184;-79
2022/10/19 01:57:35;;;;;;;0.10;0.10;;;13.00;99.90;;;;;;5072272;28;20213;-80
2022/10/19 02:00:06;;;;;;;0.10;0.10;;;13.10;99.90;;;;;;5064406;28;20207;-80
2022/10/19 02:02:35;;;;;;;0.00;0.00;;;13.20;99.90;;;;;;5065206;28;20176;-79
2022/10/19 02:05:03;;;;;;;0.00;0.00;;;13.30;99.90;;;;;;5064395;28;20280;-79
2022/10/19 02:07:30;;;;;;;0.07;0.07;;;13.30;99.90;;;;;;5066636;28;20228;-79
2022/10/19 02:09:56;;;;;;;0.10;0.10;;;13.10;99.90;;;;;;5065429;28;20197;-79
2022/10/19 02:12:24;;;;;;;0.10;0.10;;;13.20;99.90;;;;;;5063290;28;20182;-80
2022/10/19 02:14:53;;;;;;;0.03;0.03;;;13.20;99.90;;;;;;5065856;28;20189;-79
2022/10/19 02:17:25;;;;;;;0.10;0.10;;;13.20;99.90;;;;;;5081754;28;20220;-79
2022/10/19 02:19:53;;;;;;;0.10;0.10;;;13.20;99.90;;;;;;5065660;28;20201;-79
2022/10/19 02:22:18;;;;;;;0.10;0.10;;;13.10;99.90;;;;;;5067394;28;20234;-79
2022/10/19 02:24:44;;;;;;;0.10;0.10;;;13.10;99.90;;;;;;5066939;28;20277;-79
2022/10/19 02:27:10;;;;;;;0.10;0.10;;;13.10;99.90;;;;;;5066427;28;20276;-79
2022/10/19 02:29:36;;;;;;;0.10;0.10;;;13.10;99.90;;;;;;5083279;28;20203;-80
2022/10/19 02:32:03;;;;;;;0.10;0.10;;;12.90;99.90;;;;;;5068386;28;20579;-80
2022/10/19 02:34:29;;;;;;;0.10;0.10;;;12.90;99.90;;;;;;5064238;28;20181;-80
2022/10/19 02:36:55;;;;;;;0.10;0.10;;;13.00;99.90;;;;;;5076171;28;20382;-79
2022/10/19 02:39:21;;;;;;;0.10;0.10;;;13.00;99.90;;;;;;5064444;28;20268;-81
2022/10/19 02:42:06;;;;;;;0.10;0.10;;;12.90;99.90;;;;;;5063871;28;20793;-80
2022/10/19 02:44:49;;;;;;;0.10;0.10;;;12.90;99.90;;;;;;5050251;28;20279;-80
2022/10/19 02:47:20;;;;;;;0.10;0.10;;;12.80;99.90;;;;;;5064140;28;20250;-79
2022/10/19 02:49:46;;;;;;;0.00;0.00;;;12.70;99.90;;;;;;5059469;28;20181;-79
2022/10/19 02:52:12;;;;;;;0.00;0.00;;;12.70;99.90;;;;;;5059226;28;20287;-79
2022/10/19 02:54:41;;;;;;;0.00;0.00;;;12.80;99.90;;;;;;5060882;28;20879;-79
2022/10/19 02:57:15;;;;;;;0.00;0.00;;;12.80;99.90;;;;;;5070397;28;20205;-79
2022/10/19 02:59:40;;;;;;;0.10;0.10;;;12.80;99.90;;;;;;5057795;28;20235;-80
2022/10/19 03:02:06;;;;;;;0.10;0.10;;;12.90;99.90;;;;;;5059000;28;20806;-80
2022/10/19 03:04:31;;;;;;;0.10;0.10;;;12.90;99.90;;;;;;5057517;28;20625;-80
2022/10/19 03:06:57;;;;;;;0.10;0.10;;;12.90;99.90;;;;;;5059420;28;20189;-79
2022/10/19 03:09:22;;;;;;;0.10;0.10;;;12.90;99.90;;;;;;5059117;28;20719;-80
2022/10/19 03:11:48;;;;;;;0.10;0.10;;;13.00;99.90;;;;;;5060353;28;20713;-79
2022/10/19 03:14:13;;;;;;;0.07;0.07;;;12.90;99.90;;;;;;5058592;28;20705;-80
2022/10/19 03:16:39;;;;;;;0.10;0.10;;;12.80;99.90;;;;;;5060473;28;20615;-79
2022/10/19 03:19:05;;;;;;;0.00;0.00;;;12.80;99.90;;;;;;5069715;28;20190;-79
2022/10/19 03:21:32;;;;;;;0.00;0.00;;;12.90;99.90;;;;;;5059932;28;20316;-79
2022/10/19 03:23:59;;;;;;;0.10;0.10;;;13.00;99.90;;;;;;5058597;28;20185;-79
2022/10/19 03:26:25;;;;;;;0.10;0.10;;;13.00;99.90;;;;;;5061137;28;20187;-79
2022/10/19 03:28:51;;;;;;;0.10;0.10;;;13.00;99.90;;;;;;5056045;28;20764;-79
2022/10/19 03:31:16;;;;;;;0.10;0.10;;;13.00;99.90;;;;;;5059985;28;20246;-79
2022/10/19 03:33:42;;;;;;;0.10;0.10;;;13.00;99.90;;;;;;5057484;28;20207;-79
2022/10/19 03:36:25;;;;;;;0.10;0.10;;;13.00;99.90;;;;;;5059868;28;20220;-79
2022/10/19 03:38:59;;;;;;;0.10;0.10;;;13.00;99.90;;;;;;5057730;28;20180;-79
2022/10/19 03:41:27;;;;;;;0.07;0.07;;;12.90;99.90;;;;;;5061034;28;20266;-80
2022/10/19 03:43:52;;;;;;;0.10;0.10;;;12.90;99.90;;;;;;5067932;28;20184;-80
2022/10/19 03:46:19;;;;;;;0.00;0.00;;;13.00;99.90;;;;;;5048358;28;20676;-80
2022/10/19 03:48:44;;;;;;;0.10;0.10;;;13.10;99.90;;;;;;5057032;28;20701;-79
2022/10/19 03:51:13;;;;;;;0.10;0.10;;;12.90;99.90;;;;;;5058005;28;20208;-79
2022/10/19 03:53:40;;;;;;;0.10;0.10;;;12.90;99.90;;;;;;5059669;28;20675;-79
2022/10/19 03:56:17;;;;;;;0.10;0.10;;;12.90;99.90;;;;;;5058794;28;20696;-80
2022/10/19 03:58:44;;;;;;;0.00;0.00;;;12.90;99.90;;;;;;5058511;28;20184;-80
2022/10/19 04:01:13;;;;;;;0.00;0.00;;;12.70;99.90;;;;;;5057852;28;20200;-79
2022/10/19 04:03:38;;;;;;;0.10;0.10;;;12.70;99.90;;;;;;5058215;28;20189;-79
2022/10/19 04:06:06;;;;;;;0.10;0.10;;;12.70;99.90;;;;;;5061158;28;20196;-79
2022/10/19 04:08:32;;;;;;;0.10;0.10;;;12.50;99.90;;;;;;5059305;28;20185;-80
2022/10/19 04:11:03;;;;;;;0.10;0.10;;;12.40;99.90;;;;;;5061945;28;20207;-80
2022/10/19 04:13:30;;;;;;;0.00;0.00;;;12.20;99.90;;;;;;5060159;28;20243;-79
2022/10/19 04:15:56;;;;;;;0.10;0.10;;;12.10;99.90;;;;;;5060452;28;20197;-79
2022/10/19 04:18:21;;;;;;;0.00;0.00;;;12.10;99.90;;;;;;5062207;28;20196;-79
2022/10/19 04:20:47;;;;;;;0.00;0.00;;;12.10;99.90;;;;;;5059292;28;20644;-80
2022/10/19 04:23:12;;;;;;;0.00;0.00;;;12.00;99.90;;;;;;5059711;28;20184;-79
2022/10/19 04:25:38;;;;;;;0.00;0.00;;;11.90;99.90;;;;;;5059653;28;20726;-80
2022/10/19 04:28:04;;;;;;;0.10;0.10;;;11.90;99.90;;;;;;5060638;28;20218;-80
2022/10/19 04:30:29;;;;;;;0.10;0.10;;;11.90;99.90;;;;;;5058704;28;20216;-80
2022/10/19 04:32:55;;;;;;;0.10;0.10;;;11.90;99.90;;;;;;5058822;28;20188;-80
2022/10/19 04:35:20;;;;;;;0.10;0.10;;;11.90;99.90;;;;;;5060203;28;20326;-80
2022/10/19 04:37:46;;;;;;;0.00;0.00;;;11.90;99.90;;;;;;5052898;28;20363;-80
2022/10/19 04:40:11;;;;;;;0.00;0.00;;;11.90;99.90;;;;;;5055080;28;20197;-80
2022/10/19 04:42:37;;;;;;;0.10;0.10;;;11.80;99.90;;;;;;5056060;28;20189;-79
2022/10/19 04:45:03;;;;;;;0.10;0.10;;;11.90;99.90;;;;;;5060327;28;20173;-81
2022/10/19 04:47:29;;;;;;;0.10;0.10;;;11.90;99.90;;;;;;5060287;28;20203;-80
2022/10/19 04:49:54;;;;;;;0.10;0.10;;;12.00;99.90;;;;;;5058651;28;20202;-79
2022/10/19 04:52:20;;;;;;;0.10;0.10;;;12.00;99.90;;;;;;5066807;28;20192;-79
2022/10/19 04:54:46;;;;;;;0.10;0.10;;;12.10;99.90;;;;;;5058914;28;20193;-79
2022/10/19 04:57:11;;;;;;;0.10;0.10;;;12.00;99.90;;;;;;5059619;28;20228;-80
2022/10/19 04:59:37;;;;;;;0.00;0.00;;;11.90;99.90;;;;;;5058504;28;21174;-80
2022/10/19 05:02:02;;;;;;;0.00;0.00;;;12.00;99.90;;;;;;5059704;28;20673;-79
2022/10/19 05:04:28;;;;;;;0.10;0.10;;;12.10;99.90;;;;;;5060531;28;20205;-80
2022/10/19 05:06:54;;;;;;;0.10;0.10;;;12.00;99.90;;;;;;5061056;28;20987;-80
2022/10/19 05:09:19;;;;;;;0.10;0.10;;;11.90;99.90;;;;;;5068003;28;20189;-80
2022/10/19 05:11:47;;;;;;;0.00;0.00;;;11.90;99.90;;;;;;5058492;28;21315;-80
2022/10/19 05:14:13;;;;;;;0.10;0.10;;;11.90;99.90;;;;;;5069198;28;20232;-80
2022/10/19 05:16:38;;;;;;;0.10;0.10;;;11.80;99.90;;;;;;5056320;28;20311;-79
2022/10/19 05:19:04;;;;;;;0.00;0.00;;;11.90;99.90;;;;;;5058696;28;20254;-79
2022/10/19 05:21:29;;;;;;;0.10;0.10;;;11.80;99.90;;;;;;5055721;28;20225;-79
2022/10/19 05:23:56;;;;;;;0.00;0.00;;;11.80;99.90;;;;;;5075165;28;21575;-79
2022/10/19 05:26:23;;;;;;;0.10;0.10;;;11.80;99.90;;;;;;5061372;28;20211;-80
2022/10/19 05:28:55;;;;;;;0.10;0.10;;;11.80;99.90;;;;;;5061986;28;20288;-79
2022/10/19 05:31:21;;;;;;;0.10;0.10;;;11.80;99.90;;;;;;5060943;28;20218;-79
2022/10/19 05:33:47;;;;;;;0.10;0.10;;;11.80;99.90;;;;;;5071119;28;20210;-79
2022/10/19 05:36:17;;;;;;;0.10;0.10;;;11.70;99.90;;;;;;5061993;28;20204;-80
2022/10/19 05:38:44;;;;;;;0.10;0.10;;;11.60;99.90;;;;;;5063513;28;20189;-79
2022/10/19 05:41:10;;;;;;;0.10;0.10;;;11.50;99.90;;;;;;5062054;28;20279;-79
2022/10/19 05:43:35;;;;;;;0.00;0.00;;;11.40;99.90;;;;;;5063218;28;20189;-80
2022/10/19 05:46:03;;;;;;;0.00;0.00;;;11.40;99.90;;;;;;5061156;28;20223;-79
2022/10/19 05:48:32;;;;;;;0.10;0.10;;;11.40;99.90;;;;;;5071114;28;20197;-78
2022/10/19 05:50:58;;;;;;;0.10;0.10;;;11.40;99.90;;;;;;5061628;28;20750;-80
2022/10/19 05:53:24;;;;;;;0.00;0.00;;;11.40;99.90;;;;;;5062354;28;20310;-80
2022/10/19 05:55:49;;;;;;;0.03;0.03;;;11.40;99.90;;;;;;5063210;28;20294;-78
2022/10/19 05:58:15;;;;;;;0.03;0.03;;;11.40;99.90;;;;;;5063447;28;20273;-81
2022/10/19 06:00:40;;;;;;;0.10;0.10;;;11.60;99.90;;;;;;5062522;28;20301;-80
2022/10/19 06:03:06;;;;;;;0.10;0.10;;;11.70;99.90;;;;;;5063845;28;20185;-80
2022/10/19 06:05:31;;;;;;;0.07;0.07;;;11.90;99.90;;;;;;5061525;28;20200;-80
2022/10/19 06:07:57;;;;;;;0.10;0.10;;;12.10;99.90;;;;;;5063428;28;20184;-80
2022/10/19 06:10:22;;;;;;;0.10;0.10;;;12.10;99.90;;;;;;5064651;28;20279;-80
2022/10/19 06:12:48;;;;;;;0.00;0.00;;;12.40;99.90;;;;;;5063215;28;20189;-80
2022/10/19 06:15:14;;;;;;;0.10;0.10;;;12.50;99.90;;;;;;5065417;28;20208;-80
2022/10/19 06:17:39;;;;;;;0.10;0.10;;;12.70;99.90;;;;;;5064330;28;20635;-80
2022/10/19 06:20:05;;;;;;;0.10;0.10;;;12.80;99.90;;;;;;5064085;28;20203;-79
2022/10/19 06:22:31;;;;;;;0.00;0.00;;;13.00;99.90;;;;;;5059160;28;20200;-80
2022/10/19 06:24:56;;;;;;;0.00;0.00;;;13.10;99.90;;;;;;5057791;28;20188;-82
2022/10/19 06:27:22;;;;;;;0.07;0.07;;;12.90;99.90;;;;;;5063979;28;20181;-81
2022/10/19 06:29:47;;;;;;;0.10;0.10;;;12.70;99.90;;;;;;5063167;28;20651;-81
2022/10/19 06:32:13;;;;;;;0.00;0.00;;;12.60;99.90;;;;;;5060429;28;20193;-82
2022/10/19 06:34:39;;;;;;;0.10;0.10;;;12.40;99.90;;;;;;5063879;28;20193;-85
2022/10/19 06:37:04;;;;;;;0.10;0.10;;;12.40;99.90;;;;;;5054510;28;20216;-80
2022/10/19 06:39:30;;;;;;;0.10;0.10;;;12.30;99.90;;;;;;5062381;28;20204;-80
2022/10/19 06:41:55;;;;;;;0.00;0.00;;;12.20;99.90;;;;;;5058860;28;20239;-79
2022/10/19 06:44:21;;;;;;;0.07;0.07;;;12.40;99.90;;;;;;5059729;28;20190;-80
2022/10/19 06:46:47;;;;;;;0.10;0.10;;;12.50;99.90;;;;;;5061068;28;20228;-80
2022/10/19 06:49:13;;;;;;;0.10;0.10;;;12.70;99.90;;;;;;5063390;28;20217;-80
2022/10/19 06:51:39;;;;;;;0.10;0.10;;;12.70;99.90;;;;;;5061173;28;20219;-80
2022/10/19 06:54:05;;;;;;;0.10;0.10;;;12.70;99.90;;;;;;5060931;28;20201;-80
2022/10/19 06:56:31;;;;;;;0.10;0.10;;;12.70;99.90;;;;;;5077323;28;20202;-80
2022/10/19 06:58:57;;;;;;;0.10;0.10;;;12.70;99.90;;;;;;5078226;28;20205;-79
2022/10/19 07:01:23;;;;;;;0.10;0.10;;;12.70;99.90;;;;;;5061116;28;20205;-80
2022/10/19 07:03:52;;;;;;;0.00;0.00;;;12.80;99.90;;;;;;5062365;28;20192;-80
2022/10/19 07:06:18;;;;;;;0.10;0.10;;;12.80;99.90;;;;;;5059587;28;20199;-80
2022/10/19 07:08:44;;;;;;;0.10;0.10;;;12.80;99.90;;;;;;5058718;28;20185;-80
2022/10/19 07:11:14;;;;;;;0.07;0.07;;;12.80;99.90;;;;;;5057306;28;20209;-80
2022/10/19 07:13:39;;;;;;;0.10;0.10;;;13.00;99.90;;;;;;5060477;28;20200;-80
2022/10/19 07:16:10;;;;;;;0.10;0.10;;;12.90;99.90;;;;;;5061058;28;20202;-80
2022/10/19 07:18:38;;;;;;;0.00;0.00;;;12.90;99.90;;;;;;5070408;28;20200;-83
2022/10/19 07:21:07;;;;;;;0.00;0.00;;;13.00;99.90;;;;;;5072380;28;20211;-80
2022/10/19 07:23:34;;;;;;;0.10;0.10;;;13.00;99.90;;;;;;5063386;28;20786;-79
2022/10/19 07:26:15;;;;;;;0.10;0.10;;;13.20;99.90;;;;;;5062407;28;20181;-79
2022/10/19 07:28:43;;;;;;;0.10;0.10;;;13.50;99.90;;;;;;5070946;28;20192;-80
2022/10/19 07:31:12;;;;;;;0.00;0.00;;;13.80;99.90;;;;;;5060913;28;20202;-79
2022/10/19 07:33:37;;;;;;;0.10;0.10;;;14.00;99.90;;;;;;5063843;28;20196;-80
2022/10/19 07:36:06;;;;;;;0.10;0.10;;;14.00;99.90;;;;;;5066349;28;20211;-80
2022/10/19 07:38:32;;;;;;;0.10;0.10;;;13.90;99.90;;;;;;5061970;28;20199;-80
2022/10/19 07:41:06;;;;;;;0.10;0.10;;;14.00;99.90;;;;;;5078991;28;20201;-80
2022/10/19 07:43:32;;;;;;;0.10;0.10;;;14.10;99.90;;;;;;5061877;28;20191;-80
2022/10/19 07:46:07;;;;;;;0.10;0.10;;;14.20;99.90;;;;;;5078310;28;20187;-80
2022/10/19 07:48:34;;;;;;;0.10;0.10;;;14.50;99.90;;;;;;5079252;28;20194;-80
2022/10/19 07:51:04;;;;;;;0.10;0.10;;;14.90;99.90;;;;;;5063956;28;20719;-80
2022/10/19 07:53:30;;;;;;;0.10;0.10;;;14.90;99.90;;;;;;5070279;28;20210;-80
2022/10/19 07:56:03;;;;;;;0.10;0.10;;;14.70;99.90;;;;;;5061498;28;20210;-80
2022/10/19 07:58:28;;;;;;;0.10;0.10;;;14.50;99.90;;;;;;5064412;28;20255;-80
2022/10/19 08:01:02;;;;;;;0.10;0.10;;;14.60;99.90;;;;;;5061349;28;20322;-80
2022/10/19 08:03:28;;;;;;;0.10;0.10;;;14.90;99.90;;;;;;5062734;28;20216;-79
2022/10/19 08:05:57;;;;;;;0.10;0.10;;;14.90;99.90;;;;;;5063891;28;20777;-79
2022/10/19 08:08:23;;;;;;;0.10;0.10;;;15.10;99.90;;;;;;5061792;28;20191;-80
2022/10/19 08:10:49;;;;;;;0.10;0.10;;;15.40;99.90;;;;;;5060852;28;20236;-82
2022/10/19 08:13:14;;;;;;;0.10;0.10;;;15.50;99.90;;;;;;5063022;28;20208;-80
2022/10/19 08:15:40;;;;;;;0.10;0.10;;;15.40;99.90;;;;;;5056097;28;20233;-81
2022/10/19 08:18:05;;;;;;;0.10;0.10;;;15.60;99.90;;;;;;5059358;28;20195;-80
2022/10/19 08:20:31;;;;;;;0.10;0.10;;;15.80;99.90;;;;;;5061003;28;20213;-82
2022/10/19 08:22:56;;;;;;;0.10;0.10;;;16.00;99.90;;;;;;5058326;28;20191;-80
2022/10/19 08:25:22;;;;;;;0.10;0.10;;;16.10;99.90;;;;;;5061173;28;20414;-81
2022/10/19 08:27:47;;;;;;;0.10;0.10;;;16.30;99.90;;;;;;5063013;28;20195;-80
2022/10/19 08:30:13;;;;;;;0.10;0.10;;;16.40;99.90;;;;;;5060351;28;20212;-81
2022/10/19 08:32:39;;;;;;;0.10;0.10;;;16.50;99.90;;;;;;5056938;28;20450;-80
2022/10/19 08:35:04;;;;;;;0.10;0.10;;;16.10;99.90;;;;;;5058975;28;20189;-80
2022/10/19 08:37:30;;;;;;;0.10;0.10;;;15.90;99.90;;;;;;5057065;28;20255;-81
2022/10/19 08:39:56;;;;;;;0.10;0.10;;;15.80;99.90;;;;;;5062186;28;20677;-81
2022/10/19 08:42:30;;;;;;;0.10;0.10;;;15.90;99.90;;;;;;5056544;28;20234;-81
2022/10/19 08:45:20;;;;;;;0.10;0.10;;;15.50;99.90;;;;;;5058265;28;20307;-81
2022/10/19 08:47:55;;;;;;;0.10;0.10;;;15.50;99.90;;;;;;5077063;28;20199;-81
2022/10/19 08:50:29;;;;;;;0.10;0.10;;;15.90;99.90;;;;;;5069488;28;20239;-80
2022/10/19 08:53:02;;;;;;;0.10;0.10;;;16.10;99.90;;;;;;5058836;28;20717;-81
2022/10/19 08:55:56;;;;;;;0.10;0.10;;;16.00;99.90;;;;;;5067682;28;20587;-81
2022/10/19 08:58:46;;;;;;;0.10;0.10;;;16.10;99.90;;;;;;5070680;28;20185;-82
2022/10/19 09:01:38;;;;;;;0.10;0.10;;;16.10;99.90;;;;;;5071897;28;20207;-81
2022/10/19 09:04:25;;;;;;;0.10;0.10;;;16.00;99.90;;;;;;5063997;28;20265;-81
2022/10/19 09:07:08;;;;;;;0.10;0.10;;;15.80;99.90;;;;;;5064803;28;20310;-81
2022/10/19 09:09:42;;;;;;;0.10;0.10;;;15.90;99.90;;;;;;5081172;28;20649;-80
2022/10/19 09:12:16;;;;;;;0.10;0.10;;;16.20;99.90;;;;;;5063130;28;20183;-81
2022/10/19 09:14:54;;;;;;;0.10;0.10;;;16.00;99.90;;;;;;5071071;28;20216;-80
2022/10/19 09:17:20;;;;;;;0.10;0.10;;;16.10;99.90;;;;;;5066023;28;20208;-81
2022/10/19 09:19:46;;;;;;;0.10;0.10;;;16.40;99.90;;;;;;5065329;28;20436;-81
2022/10/19 09:22:19;;;;;;;0.40;0.40;;;16.50;99.90;;;;;;5062585;28;20191;-81
2022/10/19 09:24:51;;;;;;;0.10;0.10;;;16.00;99.90;;;;;;5062552;28;20192;-82
2022/10/19 09:27:21;;;;;;;0.10;0.10;;;16.10;99.90;;;;;;5063694;28;22004;-81
2022/10/19 09:29:55;;;;;;;0.10;0.10;;;16.10;99.90;;;;;;5064654;28;20191;-81
2022/10/19 09:32:32;;;;;;;0.10;0.10;;;15.90;99.90;;;;;;5063972;28;20666;-81
2022/10/19 09:35:03;;;;;;;0.10;0.10;;;15.70;99.90;;;;;;5062507;28;20214;-80
2022/10/19 09:37:31;;;;;;;0.10;0.10;;;15.60;99.90;;;;;;5074737;28;20226;-81
2022/10/19 09:39:57;;;;;;;0.10;0.10;;;16.00;99.90;;;;;;5061663;28;20219;-81
2022/10/19 09:42:23;;;;;;;0.10;0.10;;;16.60;99.90;;;;;;5060456;28;20184;-81
2022/10/19 09:44:50;;;;;;;0.10;0.10;;;16.90;99.90;;;;;;5070660;28;20724;-82
2022/10/19 09:47:22;;;;;;;0.10;0.10;;;16.90;99.90;;;;;;5063334;28;20192;-81
2022/10/19 09:49:48;;;;;;;0.10;0.10;;;16.70;99.90;;;;;;5060887;28;20193;-80
2022/10/19 09:52:37;;;;;;;0.10;0.10;;;16.80;99.90;;;;;;5061303;28;20245;-80
2022/10/19 09:55:05;;;;;;;0.10;0.10;;;16.90;99.90;;;;;;5078189;28;20241;-80
2022/10/19 09:57:31;;;;;;;0.10;0.10;;;17.00;99.90;;;;;;5063041;28;20302;-79
2022/10/19 09:59:56;;;;;;;0.10;0.10;;;16.90;99.90;;;;;;5059212;28;20311;-80
2022/10/19 10:02:30;;;;;;;0.10;0.10;;;16.50;99.90;;;;;;5061854;28;20215;-80
2022/10/19 10:05:02;;;;;;;0.10;0.10;;;16.30;99.90;;;;;;5059388;28;20246;-79
2022/10/19 10:07:34;;;;;;;0.10;0.10;;;16.20;99.90;;;;;;5062147;28;20184;-79
2022/10/19 10:09:59;;;;;;;0.10;0.10;;;16.30;99.90;;;;;;5060294;28;20213;-80
2022/10/19 10:12:25;;;;;;;0.10;0.10;;;16.40;99.90;;;;;;5065752;28;20202;-80
2022/10/19 10:14:54;;;;;;;0.10;0.10;;;16.30;99.90;;;;;;5064669;28;20182;-79
2022/10/19 10:17:25;;;;;;;0.80;0.80;;;16.50;99.90;;;;;;5075685;28;20235;-80
2022/10/19 10:20:04;;;;;;;0.10;0.10;;;16.30;99.90;;;;;;5069880;28;20181;-80
2022/10/19 10:22:33;;;;;;;0.10;0.10;;;16.50;99.90;;;;;;5067628;28;20553;-80
2022/10/19 10:24:59;;;;;;;0.10;0.10;;;16.70;99.90;;;;;;5073715;28;20202;-82
2022/10/19 10:27:34;;;;;;;0.10;0.10;;;16.90;99.90;;;;;;5062631;28;20203;-82
2022/10/19 10:30:07;;;;;;;0.10;0.10;;;16.40;99.90;;;;;;5061595;28;20222;-83
2022/10/19 10:32:37;;;;;;;0.10;0.10;;;16.10;99.90;;;;;;5058950;28;20196;-82
2022/10/19 10:35:06;;;;;;;0.10;0.10;;;16.20;99.90;;;;;;5075149;28;20200;-82
2022/10/19 10:37:43;;;;;;;0.10;0.10;;;16.30;99.90;;;;;;5080234;28;20327;-82
2022/10/19 10:40:29;;;;;;;0.10;0.10;;;16.60;99.90;;;;;;5062300;28;20204;-83
2022/10/19 10:43:11;;;;;;;0.10;0.10;;;16.30;99.90;;;;;;5077943;28;20192;-82
2022/10/19 10:45:40;;;;;;;0.10;0.10;;;16.10;99.90;;;;;;5065628;28;20187;-82
2022/10/19 10:48:30;;;;;;;0.10;0.10;;;16.60;99.90;;;;;;5061035;28;21144;-83
2022/10/19 10:50:58;;;;;;;0.10;0.10;;;16.90;99.90;;;;;;5055846;28;20284;-80
2022/10/19 10:53:30;;;;;;;0.10;0.10;;;16.40;99.90;;;;;;5078868;28;20189;-82
2022/10/19 10:55:56;;;;;;;0.10;0.10;;;16.60;99.90;;;;;;5060050;28;20209;-80
2022/10/19 10:58:37;;;;;;;0.10;0.10;;;16.50;99.90;;;;;;5057323;28;20176;-82
2022/10/19 11:01:12;;;;;;;0.10;0.10;;;16.70;99.90;;;;;;5062793;28;20298;-82
2022/10/19 11:03:45;;;;;;;0.10;0.10;;;17.00;99.90;;;;;;5061575;28;20207;-81
2022/10/19 11:06:11;;;;;;;0.10;0.10;;;17.20;99.90;;;;;;5064705;28;20218;-81
2022/10/19 11:08:55;;;;;;;0.10;0.10;;;17.40;99.90;;;;;;5060981;28;20538;-81
2022/10/19 11:11:43;;;;;;;0.10;0.10;;;17.50;99.90;;;;;;5063161;28;20298;-83
2022/10/19 11:14:36;;;;;;;0.97;0.80;;;17.20;99.90;;;;;;5075301;28;20185;-84
2022/10/19 11:17:11;;;;;;;0.10;0.10;;;16.60;99.90;;;;;;5074509;28;20764;-83
2022/10/19 11:19:41;;;;;;;0.10;0.10;;;17.10;99.90;;;;;;5072234;28;20610;-82
2022/10/19 11:22:21;;;;;;;0.10;0.10;;;17.00;99.90;;;;;;5061272;28;20181;-83
2022/10/19 11:25:06;;;;;;;0.10;0.10;;;17.10;99.90;;;;;;5058307;28;20776;-88
2022/10/19 11:27:41;;;;;;;0.10;0.10;;;17.00;99.90;;;;;;5064473;28;20193;-82
2022/10/19 11:30:19;;;;;;;0.10;0.10;;;16.90;99.90;;;;;;5083680;28;20204;-81
2022/10/19 11:33:00;;;;;;;0.10;0.10;;;17.40;99.90;;;;;;5077328;28;20185;-83
2022/10/19 11:35:41;;;;;;;0.10;0.10;;;17.10;99.90;;;;;;5061571;28;20518;-82
2022/10/19 11:38:26;;;;;;;0.10;0.10;;;17.40;99.90;;;;;;5074113;28;20960;-82
2022/10/19 11:41:14;;;;;;;0.10;0.10;;;17.50;99.90;;;;;;5061258;28;20213;-82
2022/10/19 11:44:00;;;;;;;0.10;0.10;;;17.30;99.90;;;;;;5062781;28;20189;-82
2022/10/19 11:46:53;;;;;;;0.10;0.10;;;17.40;99.90;;;;;;5070647;28;20207;-82
2022/10/19 11:49:44;;;;;;;0.10;0.10;;;17.50;99.90;;;;;;5073006;28;20185;-82
2022/10/19 11:52:24;;;;;;;0.10;0.10;;;16.70;99.90;;;;;;5062474;28;20592;-82
2022/10/19 11:55:27;;;;;;;0.10;0.10;;;17.00;99.90;;;;;;5060669;28;20203;-82
2022/10/19 11:57:59;;;;;;;0.10;0.10;;;17.40;99.90;;;;;;5064522;28;20200;-83
2022/10/19 12:00:27;;;;;;;0.10;0.10;;;16.80;99.90;;;;;;5070720;28;20205;-83
2022/10/19 12:03:12;;;;;;;0.10;0.10;;;17.00;99.90;;;;;;5059859;28;20592;-82
2022/10/19 12:06:01;;;;;;;0.10;0.10;;;17.00;99.90;;;;;;5061657;28;20207;-82
2022/10/19 12:08:45;;;;;;;0.10;0.10;;;16.90;99.90;;;;;;5073468;28;20196;-82
2022/10/19 12:11:42;;;;;;;0.10;0.10;;;17.20;99.90;;;;;;5069054;28;20201;-83
2022/10/19 12:14:25;;;;;;;6.30;2.70;;;16.90;99.90;;;;;;5061311;28;20181;-83
2022/10/19 12:16:57;;;;;;;0.10;0.10;;;17.00;99.90;;;;;;5058478;28;20203;-83
2022/10/19 12:19:32;;;;;;;0.10;0.10;;;16.90;99.90;;;;;;5076786;28;20184;-82
2022/10/19 12:22:03;;;;;;;0.10;0.10;;;16.60;99.90;;;;;;5060677;28;20324;-83
2022/10/19 12:24:31;;;;;;;0.10;0.10;;;16.50;99.90;;;;;;5066102;28;20213;-82
2022/10/19 12:26:58;;;;;;;0.10;0.10;;;16.60;99.90;;;;;;5061535;28;20193;-83
2022/10/19 12:29:28;;;;;;;0.10;0.10;;;16.80;99.90;;;;;;5062832;28;20956;-82
2022/10/19 12:31:56;;;;;;;0.10;0.10;;;17.00;99.90;;;;;;5059868;28;20218;-82
2022/10/19 12:34:58;;;;;;;0.10;0.10;;;16.80;99.90;;;;;;5062433;28;20268;-82
2022/10/19 12:38:04;;;;;;;0.10;0.10;;;16.70;99.90;;;;;;5073494;28;20596;-85
2022/10/19 12:40:42;;;;;;;0.10;0.10;;;16.70;99.90;;;;;;5071925;28;20200;-83
2022/10/19 12:43:07;;;;;;;0.10;0.10;;;16.10;99.90;;;;;;5061665;28;20223;-83
2022/10/19 12:45:50;;;;;;;1.03;0.67;;;15.80;99.90;;;;;;5082765;28;20269;-79
2022/10/19 12:48:19;;;;;;;0.10;0.10;;;15.60;99.90;;;;;;5075389;28;20190;-80
2022/10/19 12:50:47;;;;;;;1.37;0.93;;;15.80;99.90;;;;;;5074137;28;20277;-80
2022/10/19 12:53:27;;;;;;;0.10;0.10;;;15.50;99.90;;;;;;5071233;28;20290;-80
2022/10/19 12:56:17;;;;;;;0.10;0.10;;;15.60;99.90;;;;;;5066261;28;20218;-81
2022/10/19 12:58:42;;;;;;;0.10;0.10;;;15.40;99.90;;;;;;5064679;28;20187;-80
2022/10/19 13:01:23;;;;;;;0.10;0.10;;;15.40;99.90;;;;;;5061860;28;20199;-81
2022/10/19 13:04:07;;;;;;;0.10;0.10;;;15.70;99.90;;;;;;5075159;28;20257;-79
2022/10/19 13:06:37;;;;;;;0.10;0.10;;;15.60;99.90;;;;;;5079349;28;20989;-79